createdAt,value
2023-02-12T00:03:30.964Z,3.23
2023-02-12T00:06:18.016Z,3.29
2023-02-12T00:09:05.125Z,3.29
2023-02-12T00:11:52.157Z,3.28
2023-02-12T00:14:39.187Z,3.27
2023-02-12T00:17:26.183Z,3.30
2023-02-12T00:20:13.388Z,3.15
2023-02-12T00:23:00.418Z,3.23
2023-02-12T00:25:47.509Z,3.23
2023-02-12T00:28:35.455Z,3.17
2023-02-12T00:31:25.396Z,3.23
2023-02-12T00:34:12.698Z,3.26
2023-02-12T00:36:59.765Z,3.41
2023-02-12T00:39:46.781Z,3.30
2023-02-12T00:42:33.985Z,3.32
2023-02-12T00:45:21.064Z,3.36
2023-02-12T00:48:08.106Z,3.40
2023-02-12T00:50:55.130Z,3.22
2023-02-12T00:53:42.194Z,3.20
2023-02-12T00:56:29.245Z,3.25
2023-02-12T00:59:16.380Z,3.22
2023-02-12T01:02:03.849Z,3.20
2023-02-12T01:04:50.930Z,3.31
2023-02-12T01:07:38.693Z,3.40
2023-02-12T01:10:26.024Z,3.46
2023-02-12T01:13:14.956Z,3.50
2023-02-12T01:16:20.516Z,3.36
2023-02-12T01:19:07.729Z,3.34
2023-02-12T01:21:54.905Z,3.32
2023-02-12T01:24:41.942Z,3.30
2023-02-12T01:27:28.960Z,3.31
2023-02-12T01:30:16.935Z,3.40
2023-02-12T01:33:04.266Z,3.30
2023-02-12T01:35:51.289Z,3.35
2023-02-12T01:38:38.385Z,3.36
2023-02-12T01:41:28.581Z,3.33
2023-02-12T01:44:18.003Z,3.38
2023-02-12T01:47:06.470Z,3.39
2023-02-12T01:49:53.609Z,3.30
2023-02-12T01:52:46.421Z,3.54
2023-02-12T01:55:33.589Z,3.46
2023-02-12T01:58:20.929Z,3.50
2023-02-12T02:01:11.408Z,3.43
2023-02-12T02:04:08.297Z,3.37
2023-02-12T02:07:01.542Z,3.45
2023-02-12T02:09:48.737Z,3.46
2023-02-12T02:12:55.333Z,3.64
2023-02-12T02:15:47.953Z,3.69
2023-02-12T02:18:48.922Z,3.65
2023-02-12T02:21:52.049Z,3.57
2023-02-12T02:25:03.737Z,3.61
2023-02-12T02:27:50.668Z,3.58
2023-02-12T02:30:46.968Z,3.42
2023-02-12T02:34:12.339Z,3.36
2023-02-12T02:37:17.539Z,3.49
2023-02-12T02:40:10.448Z,3.51
2023-02-12T02:43:04.993Z,3.40
2023-02-12T02:45:59.115Z,3.52
2023-02-12T02:48:52.425Z,3.44
2023-02-12T02:51:46.722Z,3.40
2023-02-12T02:54:42.719Z,3.31
2023-02-12T02:57:35.883Z,3.10
2023-02-12T03:00:31.922Z,3.44
2023-02-12T03:03:39.805Z,3.39
2023-02-12T03:06:36.214Z,3.34
2023-02-12T03:09:57.941Z,3.29
2023-02-12T03:12:55.438Z,3.29
2023-02-12T03:15:48.478Z,3.20
2023-02-12T03:18:42.859Z,3.30
2023-02-12T03:21:44.939Z,3.18
2023-02-12T03:24:46.452Z,3.21
2023-02-12T03:27:42.327Z,3.28
2023-02-12T03:30:43.163Z,3.22
2023-02-12T03:34:00.641Z,3.23
2023-02-12T03:36:59.380Z,3.28
2023-02-12T03:39:58.868Z,3.18
2023-02-12T03:43:02.651Z,3.30
2023-02-12T03:45:52.360Z,3.19
2023-02-12T03:48:53.044Z,3.15
2023-02-12T03:51:42.878Z,3.11
2023-02-12T03:54:30.212Z,3.12
2023-02-12T03:57:23.957Z,3.11
2023-02-12T04:00:17.109Z,3.03
2023-02-12T04:03:05.174Z,3.00
2023-02-12T04:05:52.252Z,2.93
2023-02-12T04:08:39.312Z,3.04
2023-02-12T04:11:58.662Z,3.04
2023-02-12T04:15:12.440Z,3.05
2023-02-12T04:18:20.872Z,3.06
2023-02-12T04:21:13.901Z,2.93
2023-02-12T04:24:17.631Z,2.89
2023-02-12T04:27:23.301Z,2.91
2023-02-12T04:30:19.077Z,3.05
2023-02-12T04:33:09.940Z,2.96
2023-02-12T04:36:23.241Z,3.01
2023-02-12T04:39:15.610Z,2.88
2023-02-12T04:42:04.128Z,2.99
2023-02-12T04:44:51.137Z,2.84
2023-02-12T04:47:38.590Z,2.90
2023-02-12T04:50:26.665Z,2.97
2023-02-12T04:53:14.027Z,2.95
2023-02-12T04:56:01.039Z,2.93
2023-02-12T04:58:48.120Z,2.94
2023-02-12T05:01:36.072Z,2.99
2023-02-12T05:04:23.192Z,3.01
2023-02-12T05:07:12.050Z,2.82
2023-02-12T05:09:59.147Z,2.74
2023-02-12T05:12:46.209Z,2.81
2023-02-12T05:15:33.358Z,2.80
2023-02-12T05:18:20.394Z,2.74
2023-02-12T05:21:07.723Z,2.89
2023-02-12T05:23:54.733Z,2.65
2023-02-12T05:26:41.989Z,2.70
2023-02-12T05:29:29.122Z,2.75
2023-02-12T05:32:16.263Z,2.89
2023-02-12T05:35:03.485Z,2.91
2023-02-12T05:37:50.509Z,2.68
2023-02-12T05:40:37.601Z,2.65
2023-02-12T05:43:24.667Z,2.74
2023-02-12T05:46:12.724Z,2.70
2023-02-12T05:48:59.916Z,2.67
2023-02-12T05:51:46.971Z,2.71
2023-02-12T05:54:34.053Z,2.63
2023-02-12T05:57:21.034Z,2.62
2023-02-12T06:00:09.166Z,2.59
2023-02-12T06:02:56.274Z,2.60
2023-02-12T06:05:43.415Z,2.54
2023-02-12T06:08:30.415Z,2.61
2023-02-12T06:11:17.904Z,2.75
2023-02-12T06:14:07.667Z,2.72
2023-02-12T06:16:54.737Z,2.56
2023-02-12T06:19:41.855Z,2.56
2023-02-12T06:22:29.170Z,2.51
2023-02-12T06:25:16.370Z,2.62
2023-02-12T06:28:03.590Z,2.68
2023-02-12T06:30:51.182Z,2.90
2023-02-12T06:33:38.291Z,2.83
2023-02-12T06:36:25.603Z,2.80
2023-02-12T06:39:14.433Z,2.93
2023-02-12T06:42:01.482Z,2.85
2023-02-12T06:44:49.742Z,2.90
2023-02-12T06:47:38.389Z,2.72
2023-02-12T06:50:26.095Z,2.72
2023-02-12T06:53:13.122Z,2.89
2023-02-12T06:56:02.070Z,2.87
2023-02-12T06:58:55.076Z,3.03
2023-02-12T07:01:42.417Z,2.98
2023-02-12T07:04:29.426Z,3.07
2023-02-12T07:07:16.483Z,2.98
2023-02-12T07:10:03.592Z,3.20
2023-02-12T07:12:50.613Z,2.92
2023-02-12T07:15:39.842Z,2.90
2023-02-12T07:18:26.868Z,3.17
2023-02-12T07:21:15.869Z,3.19
2023-02-12T07:24:03.009Z,3.02
2023-02-12T07:26:50.160Z,3.15
2023-02-12T07:29:37.598Z,3.13
2023-02-12T07:32:24.636Z,3.29
2023-02-12T07:35:11.727Z,3.37
2023-02-12T07:38:00.164Z,3.37
2023-02-12T07:40:47.194Z,3.38
2023-02-12T07:43:34.200Z,3.41
2023-02-12T07:46:26.472Z,3.47
2023-02-12T07:49:16.516Z,3.40
2023-02-12T07:52:03.637Z,3.44
2023-02-12T07:54:51.634Z,3.47
2023-02-12T07:57:38.758Z,3.42
2023-02-12T08:00:25.889Z,3.51
2023-02-12T08:03:13.151Z,3.48
2023-02-12T08:06:00.170Z,3.52
2023-02-12T08:08:48.043Z,3.58
2023-02-12T08:11:35.281Z,3.47
2023-02-12T08:14:22.993Z,3.48
2023-02-12T08:17:10.621Z,3.63
2023-02-12T08:19:57.826Z,3.57
2023-02-12T08:22:44.871Z,3.61
2023-02-12T08:25:31.913Z,3.48
2023-02-12T08:28:19.080Z,3.59
2023-02-12T08:31:09.529Z,3.59
2023-02-12T08:33:57.821Z,3.54
2023-02-12T08:36:45.224Z,3.45
2023-02-12T08:39:32.599Z,3.67
2023-02-12T08:42:19.733Z,3.69
2023-02-12T08:45:09.902Z,3.62
2023-02-12T08:48:00.112Z,3.61
2023-02-12T08:50:47.564Z,3.77
2023-02-12T08:53:35.132Z,3.80
2023-02-12T08:56:23.483Z,3.79
2023-02-12T08:59:12.191Z,3.75
2023-02-12T09:02:00.668Z,3.90
2023-02-12T09:04:47.870Z,4.10
2023-02-12T09:07:35.735Z,3.96
2023-02-12T09:10:22.841Z,4.08
2023-02-12T09:13:12.076Z,4.36
2023-02-12T09:16:02.541Z,4.41
2023-02-12T09:19:08.167Z,4.05
2023-02-12T09:21:56.846Z,4.30
2023-02-12T09:24:44.331Z,4.50
2023-02-12T09:27:31.926Z,4.21
2023-02-12T09:30:19.197Z,4.20
2023-02-12T09:33:07.800Z,4.32
2023-02-12T09:35:55.176Z,4.07
2023-02-12T09:38:43.482Z,4.06
2023-02-12T09:41:48.360Z,4.21
2023-02-12T09:44:43.582Z,4.46
2023-02-12T09:47:40.002Z,4.62
2023-02-12T09:50:46.155Z,4.62
2023-02-12T09:53:37.464Z,4.48
2023-02-12T09:56:27.028Z,4.39
2023-02-12T09:59:42.657Z,4.42
2023-02-12T10:02:29.830Z,4.39
2023-02-12T10:05:27.653Z,4.17
2023-02-12T10:08:26.656Z,4.37
2023-02-12T10:11:39.191Z,4.30
2023-02-12T10:14:26.228Z,4.63
2023-02-12T10:17:13.236Z,4.57
2023-02-12T10:20:25.400Z,4.53
2023-02-12T10:23:27.654Z,4.44
2023-02-12T10:26:20.824Z,4.60
2023-02-12T10:29:39.792Z,4.52
2023-02-12T10:32:35.856Z,4.40
2023-02-12T10:35:24.422Z,4.51
2023-02-12T10:38:20.246Z,4.74
2023-02-12T10:41:07.624Z,4.72
2023-02-12T10:43:54.818Z,4.61
2023-02-12T10:46:42.558Z,4.49
2023-02-12T10:49:35.851Z,4.33
2023-02-12T10:52:55.313Z,4.61
2023-02-12T10:55:42.490Z,4.71
2023-02-12T10:58:30.212Z,4.96
2023-02-12T11:01:30.717Z,4.70
2023-02-12T11:04:24.187Z,5.05
2023-02-12T11:07:11.893Z,5.14
2023-02-12T11:09:59.458Z,5.06
2023-02-12T11:12:49.305Z,5.11
2023-02-12T11:15:49.250Z,5.24
2023-02-12T11:18:37.978Z,5.13
2023-02-12T11:21:25.151Z,4.94
2023-02-12T11:24:34.817Z,5.02
2023-02-12T11:27:26.248Z,5.10
2023-02-12T11:30:20.382Z,5.24
2023-02-12T11:33:35.696Z,5.14
2023-02-12T11:36:27.551Z,5.13
2023-02-12T11:39:33.118Z,5.23
2023-02-12T11:42:24.725Z,5.45
2023-02-12T11:45:18.525Z,5.44
2023-02-12T11:48:19.832Z,5.34
2023-02-12T11:51:09.998Z,5.17
2023-02-12T11:54:00.980Z,5.16
2023-02-12T11:56:48.739Z,5.08
2023-02-12T11:59:46.547Z,5.14
2023-02-12T12:02:40.167Z,5.30
2023-02-12T12:05:44.864Z,5.43
2023-02-12T12:08:45.536Z,5.47
2023-02-12T12:11:55.125Z,5.56
2023-02-12T12:15:07.036Z,5.72
2023-02-12T12:18:25.277Z,5.69
2023-02-12T12:21:21.084Z,5.71
2023-02-12T12:24:44.115Z,5.63
2023-02-12T12:27:59.943Z,5.63
2023-02-12T12:31:08.178Z,5.81
2023-02-12T12:34:17.826Z,5.62
2023-02-12T12:37:17.166Z,5.52
2023-02-12T12:40:37.023Z,5.61
2023-02-12T12:43:44.275Z,5.63
2023-02-12T12:46:31.784Z,5.52
2023-02-12T12:49:30.250Z,5.29
2023-02-12T12:52:39.795Z,5.14
2023-02-12T12:56:07.340Z,4.97
2023-02-12T12:59:07.498Z,5.20
2023-02-12T13:02:32.043Z,5.15
2023-02-12T13:05:54.305Z,5.35
2023-02-12T13:09:20.228Z,5.37
2023-02-12T13:12:10.598Z,5.50
2023-02-12T13:15:24.966Z,5.53
2023-02-12T13:18:25.382Z,5.64
2023-02-12T13:24:41.974Z,5.26
2023-02-12T13:30:19.771Z,5.53
2023-02-12T13:33:21.712Z,5.42
2023-02-12T13:36:13.434Z,5.29
2023-02-12T13:39:09.966Z,5.53
2023-02-12T13:42:17.591Z,5.46
2023-02-12T13:45:18.379Z,5.38
2023-02-12T13:48:30.607Z,5.49
2023-02-12T13:51:48.739Z,5.50
2023-02-12T13:55:05.367Z,5.38
2023-02-12T13:58:30.389Z,5.39
2023-02-12T14:01:40.929Z,5.37
2023-02-12T14:04:34.697Z,5.38
2023-02-12T14:07:23.368Z,5.17
2023-02-12T14:10:32.145Z,5.34
2023-02-12T14:13:34.549Z,5.40
2023-02-12T14:16:32.142Z,5.41
2023-02-12T14:19:52.015Z,5.31
2023-02-12T14:22:45.410Z,5.38
2023-02-12T14:25:55.314Z,5.35
2023-02-12T14:28:55.461Z,5.39
2023-02-12T14:31:43.618Z,5.36
2023-02-12T14:34:40.164Z,5.43
2023-02-12T14:37:38.480Z,5.35
2023-02-12T14:40:35.713Z,5.37
2023-02-12T14:43:56.015Z,5.39
2023-02-12T14:46:55.473Z,5.37
2023-02-12T14:49:49.137Z,5.25
2023-02-12T14:52:41.485Z,5.37
2023-02-12T14:55:35.419Z,5.40
2023-02-12T14:58:25.686Z,5.33
2023-02-12T15:01:13.525Z,5.25
2023-02-12T15:04:12.891Z,5.18
2023-02-12T15:07:08.708Z,5.22
2023-02-12T15:10:11.868Z,5.23
2023-02-12T15:13:40.006Z,5.21
2023-02-12T15:16:36.442Z,5.23
2023-02-12T15:19:47.850Z,5.20
2023-02-12T15:22:38.762Z,5.17
2023-02-12T15:25:29.321Z,5.15
2023-02-12T15:28:24.113Z,5.06
2023-02-12T15:31:20.227Z,5.04
2023-02-12T15:34:19.565Z,5.00
2023-02-12T15:37:09.507Z,4.97
2023-02-12T15:40:03.291Z,4.86
2023-02-12T15:43:00.292Z,4.98
2023-02-12T15:45:53.214Z,4.77
2023-02-12T15:48:41.255Z,4.80
2023-02-12T15:51:37.436Z,4.85
2023-02-12T15:54:26.359Z,4.99
2023-02-12T15:57:22.434Z,4.69
2023-02-12T16:00:23.191Z,4.61
2023-02-12T16:03:24.493Z,4.71
2023-02-12T16:06:15.370Z,4.59
2023-02-12T16:09:07.461Z,4.51
2023-02-12T16:11:58.657Z,4.45
2023-02-12T16:15:00.231Z,4.57
2023-02-12T16:17:48.914Z,4.42
2023-02-12T16:20:38.313Z,4.60
2023-02-12T16:23:26.623Z,4.44
2023-02-12T16:26:21.566Z,4.42
2023-02-12T16:29:17.701Z,4.43
2023-02-12T16:32:05.752Z,4.29
2023-02-12T16:35:01.554Z,4.21
2023-02-12T16:37:57.004Z,4.33
2023-02-12T16:41:10.137Z,4.28
2023-02-12T16:44:00.842Z,4.47
2023-02-12T16:46:52.126Z,4.34
2023-02-12T16:49:56.979Z,4.24
2023-02-12T16:52:45.304Z,4.11
2023-02-12T16:55:36.821Z,4.09
2023-02-12T16:58:26.480Z,4.05
2023-02-12T17:01:27.488Z,3.79
2023-02-12T17:04:17.103Z,3.79
2023-02-12T17:07:05.313Z,3.86
2023-02-12T17:09:53.417Z,3.90
2023-02-12T17:12:49.460Z,3.83
2023-02-12T17:16:04.465Z,3.57
2023-02-12T17:18:52.582Z,3.37
2023-02-12T17:21:43.650Z,3.45
2023-02-12T17:24:34.901Z,3.42
2023-02-12T17:27:23.084Z,3.35
2023-02-12T17:30:16.259Z,3.33
2023-02-12T17:33:04.962Z,3.16
2023-02-12T17:35:52.917Z,3.18
2023-02-12T17:38:41.817Z,3.15
2023-02-12T17:41:29.843Z,3.16
2023-02-12T17:44:18.004Z,3.07
2023-02-12T17:47:05.987Z,3.22
2023-02-12T17:49:54.168Z,3.29
2023-02-12T17:52:44.330Z,3.12
2023-02-12T17:55:33.386Z,2.99
2023-02-12T17:58:21.711Z,3.25
2023-02-12T18:01:12.080Z,2.94
2023-02-12T18:04:00.310Z,3.01
2023-02-12T18:06:51.736Z,3.02
2023-02-12T18:09:40.781Z,3.03
2023-02-12T18:12:31.305Z,2.86
2023-02-12T18:15:25.197Z,2.91
2023-02-12T18:18:16.819Z,3.07
2023-02-12T18:21:13.816Z,3.00
2023-02-12T18:24:01.927Z,3.12
2023-02-12T18:26:50.892Z,3.02
2023-02-12T18:29:42.433Z,3.14
2023-02-12T18:32:31.062Z,3.14
2023-02-12T18:35:20.024Z,3.06
2023-02-12T18:38:08.777Z,3.13
2023-02-12T18:41:00.141Z,2.96
2023-02-12T18:43:51.560Z,3.14
2023-02-12T18:46:43.860Z,3.06
2023-02-12T18:49:32.497Z,2.63
2023-02-12T18:52:23.682Z,2.59
2023-02-12T18:55:16.426Z,2.60
2023-02-12T18:58:04.912Z,2.72
2023-02-12T19:00:53.060Z,2.89
2023-02-12T19:03:43.028Z,2.77
2023-02-12T19:06:33.158Z,2.70
2023-02-12T19:09:24.889Z,2.65
2023-02-12T19:12:16.276Z,2.74
2023-02-12T19:15:07.753Z,2.61
2023-02-12T19:18:01.696Z,2.61
2023-02-12T19:20:51.352Z,2.57
2023-02-12T19:23:42.652Z,2.47
2023-02-12T19:26:33.942Z,2.41
2023-02-12T19:29:22.321Z,2.51
2023-02-12T19:32:11.405Z,2.61
2023-02-12T19:35:00.989Z,2.52
2023-02-12T19:37:49.323Z,2.58
2023-02-12T19:40:37.126Z,2.45
2023-02-12T19:43:26.989Z,2.38
2023-02-12T19:46:18.941Z,2.34
2023-02-12T19:49:08.460Z,2.34
2023-02-12T19:51:56.640Z,2.51
2023-02-12T19:54:45.968Z,2.61
2023-02-12T19:57:34.722Z,2.59
2023-02-12T20:00:26.402Z,2.51
2023-02-12T20:03:14.837Z,2.30
2023-02-12T20:06:05.867Z,2.37
2023-02-12T20:08:55.472Z,2.38
2023-02-12T20:11:44.332Z,2.69
2023-02-12T20:14:32.543Z,2.73
2023-02-12T20:17:21.505Z,2.43
2023-02-12T20:20:13.799Z,2.30
2023-02-12T20:23:02.009Z,2.54
2023-02-12T20:25:49.977Z,2.34
2023-02-12T20:28:39.812Z,2.37
2023-02-12T20:31:31.633Z,2.15
2023-02-12T20:34:20.916Z,2.25
2023-02-12T20:37:08.825Z,2.19
2023-02-12T20:39:57.860Z,2.21
2023-02-12T20:42:49.533Z,2.20
2023-02-12T20:45:37.736Z,2.27
2023-02-12T20:48:25.350Z,2.29
2023-02-12T20:51:18.946Z,2.23
2023-02-12T20:54:08.755Z,2.14
2023-02-12T20:56:56.823Z,2.22
2023-02-12T20:59:44.849Z,2.12
2023-02-12T21:02:34.172Z,1.95
2023-02-12T21:05:24.025Z,2.14
2023-02-12T21:08:15.121Z,2.10
2023-02-12T21:11:34.431Z,2.03
2023-02-12T21:14:24.011Z,1.95
2023-02-12T21:17:12.310Z,1.96
2023-02-12T21:20:01.581Z,1.90
2023-02-12T21:22:49.144Z,1.90
2023-02-12T21:25:36.972Z,1.77
2023-02-12T21:28:25.178Z,1.82
2023-02-12T21:31:19.845Z,1.90
2023-02-12T21:34:09.620Z,2.13
2023-02-12T21:36:57.513Z,2.00
2023-02-12T21:39:45.284Z,2.04
2023-02-12T21:42:32.642Z,1.96
2023-02-12T21:45:20.437Z,2.00
2023-02-12T21:48:09.336Z,2.02
2023-02-12T21:50:57.810Z,1.80
2023-02-12T21:53:46.750Z,1.79
2023-02-12T21:56:35.696Z,1.72
2023-02-12T21:59:24.946Z,1.93
2023-02-12T22:02:12.150Z,2.04
2023-02-12T22:04:59.331Z,1.93
2023-02-12T22:07:50.293Z,1.77
2023-02-12T22:10:37.976Z,1.87
2023-02-12T22:13:25.274Z,1.93
2023-02-12T22:16:19.915Z,1.92
2023-02-12T22:19:07.072Z,1.96
2023-02-12T22:21:54.282Z,1.85
2023-02-12T22:24:41.397Z,1.96
2023-02-12T22:27:36.313Z,2.03
2023-02-12T22:30:23.452Z,1.80
2023-02-12T22:33:10.475Z,1.76
2023-02-12T22:36:03.514Z,1.76
2023-02-12T22:38:53.267Z,2.02
2023-02-12T22:41:42.292Z,1.86
2023-02-12T22:44:29.509Z,1.58
2023-02-12T22:47:16.870Z,1.74
2023-02-12T22:50:04.124Z,1.98
2023-02-12T22:52:51.234Z,1.74
2023-02-12T22:55:38.341Z,1.68
2023-02-12T22:58:25.456Z,1.90
2023-02-12T23:01:18.092Z,1.61
2023-02-12T23:04:05.581Z,1.68
2023-02-12T23:06:52.804Z,1.51
2023-02-12T23:09:40.015Z,1.58
2023-02-12T23:12:27.134Z,1.40
2023-02-12T23:15:14.301Z,1.45
2023-02-12T23:18:01.357Z,1.36
2023-02-12T23:20:49.854Z,1.67
2023-02-12T23:23:37.141Z,1.42
2023-02-12T23:26:24.263Z,1.03
2023-02-12T23:29:13.478Z,1.40
2023-02-12T23:32:00.713Z,1.12
2023-02-12T23:34:47.833Z,0.99
2023-02-12T23:37:35.016Z,0.98
2023-02-12T23:40:22.119Z,1.06
2023-02-12T23:43:09.263Z,0.88
2023-02-12T23:45:56.382Z,0.86
2023-02-12T23:48:44.763Z,0.61
2023-02-12T23:51:31.894Z,0.72
2023-02-12T23:54:19.030Z,0.47
2023-02-12T23:57:06.133Z,0.61
2023-02-12T23:59:53.637Z,0.63
